createdAt,value
2023-08-12T03:17:27.991Z,98.30
2023-08-12T03:19:55.462Z,98.10
2023-08-12T03:22:22.185Z,97.80
2023-08-12T03:24:49.187Z,97.30
2023-08-12T03:27:16.147Z,97.00
2023-08-12T03:29:42.909Z,96.50
2023-08-12T03:32:09.751Z,96.00
2023-08-12T03:34:36.460Z,93.30
2023-08-12T03:37:03.199Z,90.30
2023-08-12T03:39:29.920Z,87.70
2023-08-12T03:41:56.649Z,84.80
2023-08-12T03:44:23.336Z,82.80
2023-08-12T03:46:50.162Z,81.10
2023-08-12T03:49:20.834Z,78.90
2023-08-12T03:51:49.215Z,77.50
2023-08-12T03:54:15.940Z,76.20
2023-08-12T03:56:42.689Z,75.10
2023-08-12T03:59:09.405Z,73.80
2023-08-12T04:01:36.237Z,74.80
2023-08-12T04:04:02.963Z,75.60
2023-08-12T04:06:29.803Z,76.30
2023-08-12T04:08:56.539Z,76.50
2023-08-12T04:11:23.239Z,76.50
2023-08-12T04:13:50.016Z,76.50
2023-08-12T04:16:17.237Z,76.30
2023-08-12T04:18:44.367Z,76.30
2023-08-12T04:21:12.115Z,74.40
2023-08-12T04:23:38.908Z,73.80
2023-08-12T04:26:05.669Z,74.00
2023-08-12T04:28:32.497Z,73.50
2023-08-12T04:30:59.319Z,72.70
2023-08-12T04:33:26.142Z,72.90
2023-08-12T04:35:53.773Z,71.50
2023-08-12T04:38:20.745Z,71.20
2023-08-12T04:40:48.105Z,70.30
2023-08-12T04:43:14.950Z,69.60
2023-08-12T04:45:41.704Z,69.10
2023-08-12T04:48:11.907Z,68.20
2023-08-12T04:50:39.580Z,68.20
2023-08-12T04:53:06.582Z,67.00
2023-08-12T04:55:33.592Z,67.20
2023-08-12T04:58:00.393Z,66.40
2023-08-12T05:00:29.348Z,66.20
2023-08-12T05:02:57.741Z,64.90
2023-08-12T05:05:24.701Z,64.50
2023-08-12T05:07:51.571Z,63.80
2023-08-12T05:10:18.379Z,63.20
2023-08-12T05:12:45.703Z,63.00
2023-08-12T05:15:12.513Z,64.00
2023-08-12T05:17:39.352Z,63.40
2023-08-12T05:20:06.748Z,59.90
2023-08-12T05:22:33.477Z,59.70
2023-08-12T05:25:00.256Z,61.60
2023-08-12T05:27:26.993Z,60.50
2023-08-12T05:29:53.763Z,59.60
2023-08-12T05:32:20.480Z,59.00
2023-08-12T05:34:47.237Z,58.20
2023-08-12T05:37:13.993Z,57.70
2023-08-12T05:39:40.746Z,56.90
2023-08-12T05:42:07.537Z,56.00
2023-08-12T05:44:34.372Z,56.30
2023-08-12T05:47:01.067Z,55.40
2023-08-12T05:49:27.877Z,54.40
2023-08-12T05:51:54.592Z,55.10
2023-08-12T05:54:21.323Z,55.60
2023-08-12T05:56:48.186Z,54.10
2023-08-12T05:59:14.975Z,54.00
2023-08-12T06:01:41.754Z,54.00
2023-08-12T06:04:08.569Z,53.10
2023-08-12T06:06:35.365Z,52.60
2023-08-12T06:09:02.140Z,54.50
2023-08-12T06:11:29.094Z,52.20
2023-08-12T06:13:55.873Z,52.70
2023-08-12T06:16:22.652Z,52.20
2023-08-12T06:18:49.442Z,51.00
2023-08-12T06:21:16.178Z,52.10
2023-08-12T06:23:42.873Z,51.00
2023-08-12T06:26:09.616Z,53.10
2023-08-12T06:28:36.366Z,51.10
2023-08-12T06:31:03.175Z,52.60
2023-08-12T06:33:29.889Z,50.40
2023-08-12T06:35:56.755Z,50.20
2023-08-12T06:38:23.523Z,50.60
2023-08-12T06:40:50.417Z,49.40
2023-08-12T06:43:17.515Z,49.90
2023-08-12T06:45:44.290Z,48.80
2023-08-12T06:48:11.137Z,48.70
2023-08-12T06:50:37.943Z,49.10
2023-08-12T06:53:04.855Z,48.90
2023-08-12T06:55:31.598Z,49.70
2023-08-12T06:57:58.356Z,47.10
2023-08-12T07:00:25.183Z,47.20
2023-08-12T07:02:51.983Z,46.70
2023-08-12T07:05:18.746Z,46.80
2023-08-12T07:07:45.513Z,46.20
2023-08-12T07:10:12.300Z,45.00
2023-08-12T07:12:39.054Z,45.10
2023-08-12T07:15:06.059Z,43.70
2023-08-12T07:17:32.894Z,44.00
2023-08-12T07:19:59.673Z,41.90
2023-08-12T07:22:26.571Z,42.60
2023-08-12T07:24:53.644Z,41.90
2023-08-12T07:27:20.484Z,42.10
2023-08-12T07:29:47.658Z,41.10
2023-08-12T07:32:14.651Z,41.10
2023-08-12T07:34:41.705Z,41.40
2023-08-12T07:37:08.538Z,41.00
2023-08-12T07:39:35.272Z,40.50
2023-08-12T07:42:02.051Z,40.70
2023-08-12T07:44:29.006Z,39.40
2023-08-12T07:46:55.941Z,39.90
2023-08-12T07:49:23.061Z,39.30
2023-08-12T07:51:49.977Z,39.20
2023-08-12T07:54:16.832Z,39.30
2023-08-12T07:56:43.557Z,39.40
2023-08-12T07:59:10.312Z,39.80
2023-08-12T08:01:39.039Z,39.50
2023-08-12T08:04:06.283Z,38.60
2023-08-12T08:06:33.034Z,39.00
2023-08-12T08:09:01.785Z,39.80
2023-08-12T08:11:29.162Z,38.50
2023-08-12T08:13:56.582Z,38.60
2023-08-12T08:16:23.390Z,38.20
2023-08-12T08:18:50.475Z,38.40
2023-08-12T08:21:17.275Z,38.40
2023-08-12T08:23:44.034Z,38.30
2023-08-12T08:26:10.926Z,38.10
2023-08-12T08:28:38.396Z,38.70
2023-08-12T08:31:05.401Z,38.60
2023-08-12T08:33:32.221Z,37.50
2023-08-12T08:35:58.906Z,37.80
2023-08-12T08:38:25.630Z,37.80
2023-08-12T08:40:52.965Z,38.40
2023-08-12T08:43:25.588Z,38.40
2023-08-12T08:45:54.131Z,37.40
2023-08-12T08:48:21.617Z,37.20
2023-08-12T08:50:49.551Z,37.90
2023-08-12T08:53:17.399Z,37.30
2023-08-12T08:55:44.391Z,37.10
2023-08-12T09:00:38.963Z,36.70
2023-08-12T09:03:06.700Z,37.00
2023-08-12T09:05:35.083Z,37.20
2023-08-12T09:08:02.901Z,37.10
2023-08-12T09:10:30.925Z,36.40
2023-08-12T09:15:25.338Z,37.00
2023-08-12T09:17:52.960Z,37.20
2023-08-12T09:20:19.864Z,37.70
2023-08-12T09:22:46.626Z,38.10
2023-08-12T09:25:14.059Z,37.20
2023-08-12T09:27:40.819Z,36.80
2023-08-12T09:32:36.005Z,36.60
2023-08-12T09:35:07.264Z,36.80
2023-08-12T09:37:34.515Z,36.70
2023-08-12T09:40:01.679Z,35.90
2023-08-12T09:42:29.230Z,37.50
2023-08-12T09:47:26.097Z,37.40
2023-08-12T09:49:52.881Z,37.70
2023-08-12T09:52:20.096Z,36.70
2023-08-12T09:54:46.874Z,37.10
2023-08-12T09:57:15.368Z,36.00
2023-08-12T09:59:42.647Z,36.00
2023-08-12T10:02:14.538Z,36.20
2023-08-12T10:04:43.453Z,35.80
2023-08-12T10:07:16.106Z,35.00
2023-08-12T10:09:43.018Z,35.40
2023-08-12T10:14:38.625Z,35.70
2023-08-12T10:17:06.887Z,35.20
2023-08-12T10:19:35.138Z,35.20
2023-08-12T10:22:03.421Z,35.60
2023-08-12T10:24:30.603Z,35.50
2023-08-12T10:26:57.578Z,36.00
2023-08-12T10:31:52.800Z,35.40
2023-08-12T10:34:23.643Z,36.00
2023-08-12T10:37:03.889Z,35.30
2023-08-12T10:41:58.590Z,35.90
2023-08-12T10:44:28.853Z,34.90
2023-08-12T10:46:55.920Z,36.00
2023-08-12T10:49:23.008Z,35.50
2023-08-12T10:51:50.663Z,35.50
2023-08-12T10:54:18.264Z,35.30
2023-08-12T10:57:10.178Z,35.10
2023-08-12T10:59:46.024Z,34.80
2023-08-12T11:02:19.232Z,33.90
2023-08-12T11:04:49.706Z,34.40
2023-08-12T11:07:17.525Z,34.40
2023-08-12T11:09:44.331Z,34.80
2023-08-12T11:12:12.537Z,34.70
2023-08-12T11:15:08.595Z,34.30
2023-08-12T11:17:39.195Z,34.10
2023-08-12T11:22:33.823Z,34.70
2023-08-12T11:25:01.017Z,34.10
2023-08-12T11:27:27.754Z,34.10
2023-08-12T11:29:54.962Z,34.40
2023-08-12T11:32:21.780Z,34.70
2023-08-12T11:37:16.850Z,34.70
2023-08-12T11:39:43.664Z,33.90
2023-08-12T11:42:10.463Z,34.40
2023-08-12T11:44:37.381Z,34.40
2023-08-12T11:47:04.180Z,33.90
2023-08-12T11:49:30.914Z,34.20
2023-08-12T11:51:57.685Z,34.60
2023-08-12T11:56:51.705Z,34.50
2023-08-12T12:01:50.154Z,33.90
2023-08-12T12:04:17.437Z,34.40
2023-08-12T12:06:45.007Z,33.70
2023-08-12T12:09:11.925Z,34.40
2023-08-12T12:11:39.119Z,33.80
2023-08-12T12:14:06.475Z,33.90
2023-08-12T12:16:43.841Z,34.00
2023-08-12T12:19:17.934Z,33.90
2023-08-12T12:21:46.953Z,34.10
2023-08-12T12:24:13.937Z,33.40
2023-08-12T12:26:40.800Z,33.40
2023-08-12T12:31:35.460Z,33.30
2023-08-12T12:34:02.756Z,33.80
2023-08-12T12:36:29.601Z,33.90
2023-08-12T12:41:23.668Z,34.30
2023-08-12T12:43:50.592Z,34.20
2023-08-12T12:46:17.597Z,34.10
2023-08-12T12:48:45.051Z,34.30
2023-08-12T12:51:12.076Z,34.20
2023-08-12T12:53:38.985Z,34.50
2023-08-12T12:56:06.967Z,34.70
2023-08-12T12:58:38.729Z,35.20
2023-08-12T13:01:06.585Z,34.80
2023-08-12T13:03:34.216Z,34.50
2023-08-12T13:06:03.185Z,34.40
2023-08-12T13:08:31.967Z,34.70
2023-08-12T13:10:59.137Z,34.50
2023-08-12T13:13:26.084Z,34.00
2023-08-12T13:15:53.263Z,34.90
2023-08-12T13:18:20.184Z,35.10
2023-08-12T13:20:49.183Z,38.40
2023-08-12T13:23:16.567Z,38.50
2023-08-12T13:25:43.537Z,41.90
2023-08-12T13:33:06.592Z,48.50
2023-08-12T13:35:33.480Z,49.70
2023-08-12T13:38:00.312Z,49.90
2023-08-12T13:40:27.537Z,50.20
2023-08-12T13:42:54.507Z,50.80
2023-08-12T13:45:21.533Z,51.20
2023-08-12T13:47:48.702Z,51.80
2023-08-12T13:50:15.687Z,52.00
2023-08-12T13:52:42.583Z,52.40
2023-08-12T13:55:10.331Z,52.30
2023-08-12T13:57:37.237Z,52.40
2023-08-12T14:00:10.293Z,52.10
2023-08-12T14:02:40.679Z,52.90
2023-08-12T14:05:08.796Z,53.00
2023-08-12T14:07:35.667Z,52.80
2023-08-12T14:10:02.558Z,52.60
2023-08-12T14:12:29.445Z,52.50
2023-08-12T14:14:56.458Z,52.80
2023-08-12T14:17:24.426Z,53.40
2023-08-12T14:19:59.418Z,53.60
2023-08-12T14:22:26.692Z,54.30
2023-08-12T14:24:53.967Z,53.40
2023-08-12T14:27:21.005Z,53.90
2023-08-12T14:29:48.047Z,54.30
2023-08-12T14:32:17.195Z,54.30
2023-08-12T14:34:46.346Z,54.90
2023-08-12T14:37:14.237Z,54.70
2023-08-12T14:39:41.454Z,55.60
2023-08-12T14:42:09.670Z,55.10
2023-08-12T14:44:37.568Z,55.30
2023-08-12T14:47:05.137Z,55.40
2023-08-12T14:49:32.189Z,55.80
2023-08-12T14:51:59.047Z,55.10
2023-08-12T14:54:25.979Z,55.50
2023-08-12T14:56:52.813Z,55.00
2023-08-12T14:59:19.764Z,55.30
2023-08-12T15:01:46.626Z,55.70
2023-08-12T15:04:13.541Z,55.60
2023-08-12T15:06:40.516Z,56.40
2023-08-12T15:09:07.797Z,56.10
2023-08-12T15:11:34.641Z,56.50
2023-08-12T15:14:01.610Z,57.00
2023-08-12T15:16:28.647Z,56.60
2023-08-12T15:18:55.501Z,56.40
2023-08-12T15:21:22.356Z,57.00
2023-08-12T15:23:49.322Z,57.00
2023-08-12T15:26:16.327Z,57.20
2023-08-12T15:28:43.183Z,56.80
2023-08-12T15:31:11.930Z,57.40
2023-08-12T15:33:38.790Z,57.20
2023-08-12T15:36:06.036Z,56.70
2023-08-12T15:38:33.071Z,56.20
2023-08-12T15:41:00.036Z,56.20
2023-08-12T15:43:27.530Z,56.50
2023-08-12T15:45:54.462Z,56.10
2023-08-12T15:48:21.295Z,56.20
2023-08-12T15:50:48.162Z,56.50
2023-08-12T15:53:15.703Z,56.40
2023-08-12T15:55:42.553Z,57.20
2023-08-12T15:58:09.430Z,57.30
2023-08-12T16:00:36.347Z,58.20
2023-08-12T16:03:03.525Z,57.50
2023-08-12T16:05:30.503Z,57.70
2023-08-12T16:07:57.385Z,58.00
2023-08-12T16:10:24.560Z,57.70
2023-08-12T16:12:51.681Z,57.30
2023-08-12T16:15:18.614Z,57.50
2023-08-12T16:17:45.614Z,57.30
2023-08-12T16:20:13.364Z,57.40
2023-08-12T16:22:40.403Z,57.20
2023-08-12T16:25:08.167Z,56.80
2023-08-12T16:27:35.081Z,57.20
2023-08-12T16:30:02.220Z,56.30
2023-08-12T16:32:29.206Z,56.50
2023-08-12T16:34:56.104Z,56.60
2023-08-12T16:37:23.084Z,56.00
2023-08-12T16:39:51.319Z,56.70
2023-08-12T16:42:20.070Z,56.40
2023-08-12T16:44:48.425Z,56.00
2023-08-12T16:47:15.928Z,55.80
2023-08-12T16:49:42.767Z,55.30
2023-08-12T16:52:09.736Z,56.30
2023-08-12T16:54:36.799Z,56.30
2023-08-12T16:57:05.866Z,55.90
2023-08-12T16:59:32.846Z,55.90
2023-08-12T17:01:59.679Z,55.60
2023-08-12T17:04:26.788Z,56.70
2023-08-12T17:06:53.637Z,56.50
2023-08-12T17:09:20.760Z,56.50
2023-08-12T17:11:47.642Z,58.50
2023-08-12T17:14:14.519Z,56.70
2023-08-12T17:16:41.469Z,57.40
2023-08-12T17:19:08.372Z,56.00
2023-08-12T17:21:35.301Z,56.30
2023-08-12T17:24:02.239Z,56.20
2023-08-12T17:26:29.116Z,55.70
2023-08-12T17:28:56.056Z,55.00
2023-08-12T17:31:23.234Z,55.70
2023-08-12T17:33:50.423Z,56.20
2023-08-12T17:36:17.441Z,57.10
2023-08-12T17:38:44.328Z,56.00
2023-08-12T17:41:11.377Z,56.80
2023-08-12T17:43:38.760Z,56.70
2023-08-12T17:46:05.890Z,56.60
2023-08-12T17:48:32.912Z,57.00
2023-08-12T17:50:59.773Z,57.70
2023-08-12T17:53:26.706Z,57.60
2023-08-12T17:55:53.605Z,56.60
2023-08-12T17:58:20.554Z,57.70
2023-08-12T18:00:47.869Z,57.80
2023-08-12T18:03:14.896Z,57.90
2023-08-12T18:05:41.827Z,57.90
2023-08-12T18:08:08.674Z,58.60
2023-08-12T18:10:35.601Z,59.70
2023-08-12T18:13:02.411Z,60.60
2023-08-12T18:15:29.336Z,61.30
2023-08-12T18:17:56.349Z,61.80
2023-08-12T18:20:23.328Z,62.90
2023-08-12T18:22:50.207Z,63.30
2023-08-12T18:25:17.112Z,64.10
2023-08-12T18:27:44.003Z,64.80
2023-08-12T18:30:11.316Z,65.40
2023-08-12T18:32:38.933Z,65.70
2023-08-12T18:35:06.782Z,66.40
2023-08-12T18:37:34.359Z,66.80
2023-08-12T18:40:01.282Z,66.80
2023-08-12T18:42:28.218Z,67.20
2023-08-12T18:44:55.043Z,67.00
2023-08-12T18:47:21.975Z,68.10
2023-08-12T18:49:48.912Z,68.20
2023-08-12T18:52:16.411Z,68.70
2023-08-12T18:54:43.334Z,68.70
2023-08-12T18:57:10.191Z,69.00
2023-08-12T18:59:38.522Z,69.30
2023-08-12T19:02:05.648Z,69.40
2023-08-12T19:04:32.539Z,69.80
2023-08-12T19:06:59.398Z,69.80
2023-08-12T19:09:27.205Z,69.90
2023-08-12T19:11:54.404Z,70.10
2023-08-12T19:14:21.407Z,70.40
2023-08-12T19:16:48.429Z,71.00
2023-08-12T19:19:17.079Z,70.80
2023-08-12T19:21:44.722Z,70.90
2023-08-12T19:24:11.731Z,71.20
2023-08-12T19:26:38.621Z,71.40
2023-08-12T19:29:05.621Z,71.70
2023-08-12T19:31:32.588Z,72.00
2023-08-12T19:33:59.665Z,73.30
2023-08-12T19:36:26.506Z,73.50
2023-08-12T19:38:53.418Z,73.20
2023-08-12T19:41:20.364Z,73.40
2023-08-12T19:43:47.321Z,73.30
2023-08-12T19:46:14.237Z,73.50
2023-08-12T19:48:41.125Z,74.00
2023-08-12T19:51:09.281Z,73.80
2023-08-12T19:53:36.144Z,73.90
2023-08-12T19:56:03.006Z,74.00
2023-08-12T19:58:29.887Z,76.10
2023-08-12T20:00:56.904Z,75.80
2023-08-12T20:03:24.253Z,75.10
2023-08-12T20:05:51.158Z,75.00
2023-08-12T20:08:18.078Z,75.10
2023-08-12T20:10:44.949Z,75.00
2023-08-12T20:13:11.826Z,75.00
2023-08-12T20:15:38.773Z,75.00
2023-08-12T20:18:05.735Z,75.20
2023-08-12T20:20:34.051Z,75.40
2023-08-12T20:23:06.139Z,75.50
2023-08-12T20:25:35.446Z,76.00
2023-08-12T20:28:02.774Z,76.10
2023-08-12T20:30:29.682Z,76.30
2023-08-12T20:32:56.818Z,76.50
2023-08-12T20:35:23.883Z,76.90
2023-08-12T20:37:51.070Z,76.80
2023-08-12T20:40:19.105Z,77.00
2023-08-12T20:42:46.328Z,77.30
2023-08-12T20:45:16.291Z,78.00
2023-08-12T20:47:43.782Z,78.30
2023-08-12T20:50:10.974Z,77.90
2023-08-12T20:52:37.801Z,77.80
2023-08-12T20:55:04.995Z,77.70
2023-08-12T20:57:31.921Z,77.40
2023-08-12T21:00:01.776Z,77.50
2023-08-12T21:02:29.916Z,77.60
2023-08-12T21:04:56.965Z,78.20
2023-08-12T21:07:23.852Z,77.90
2023-08-12T21:09:50.732Z,77.70
2023-08-12T21:12:17.592Z,77.80
2023-08-12T21:14:44.596Z,79.20
2023-08-12T21:17:11.567Z,79.70
2023-08-12T21:19:38.516Z,79.70
2023-08-12T21:22:05.522Z,80.70
2023-08-12T21:24:32.440Z,80.20
2023-08-12T21:26:59.392Z,80.10
2023-08-12T21:29:26.326Z,79.80
2023-08-12T21:31:53.259Z,80.20
2023-08-12T21:34:20.151Z,80.50
2023-08-12T21:36:47.037Z,81.20
2023-08-12T21:39:14.542Z,80.90
2023-08-12T21:41:41.497Z,81.20
2023-08-12T21:44:08.365Z,81.20
2023-08-12T21:46:35.251Z,81.00
2023-08-12T21:49:02.315Z,81.00
2023-08-12T21:51:29.244Z,80.80
2023-08-12T21:53:56.143Z,81.10
2023-08-12T21:56:23.141Z,81.30
2023-08-12T21:58:50.014Z,81.30
2023-08-12T22:01:16.908Z,81.70
2023-08-12T22:03:43.846Z,82.70
2023-08-12T22:06:11.843Z,82.70
2023-08-12T22:08:38.815Z,82.60
2023-08-12T22:11:05.798Z,82.30
2023-08-12T22:13:32.809Z,82.30
2023-08-12T22:15:59.787Z,82.60
2023-08-12T22:18:26.659Z,82.30
2023-08-12T22:20:54.339Z,83.40
2023-08-12T22:23:23.252Z,84.00
2023-08-12T22:25:50.919Z,84.40
2023-08-12T22:28:19.912Z,84.20
2023-08-12T22:30:49.034Z,84.00
2023-08-12T22:33:16.580Z,83.80
2023-08-12T22:35:43.594Z,83.40
2023-08-12T22:38:10.859Z,83.50
2023-08-12T22:40:38.054Z,83.10
2023-08-12T22:43:05.269Z,83.50
2023-08-12T22:45:34.905Z,83.00
2023-08-12T22:48:01.933Z,82.30
2023-08-12T22:50:28.958Z,82.00
2023-08-12T22:52:55.808Z,84.30
2023-08-12T22:55:22.728Z,84.80
2023-08-12T22:57:49.574Z,84.80
2023-08-12T23:00:16.722Z,84.70
2023-08-12T23:02:44.014Z,84.00
2023-08-12T23:05:11.426Z,83.80
2023-08-12T23:07:38.398Z,83.40
2023-08-12T23:10:05.849Z,83.10
2023-08-12T23:12:32.810Z,83.60
2023-08-12T23:14:59.749Z,85.00
2023-08-12T23:17:26.711Z,84.50
2023-08-12T23:19:53.633Z,85.20
2023-08-12T23:22:20.801Z,85.40
2023-08-12T23:24:47.721Z,85.20
2023-08-12T23:27:14.553Z,85.00
2023-08-12T23:29:41.494Z,84.80
2023-08-12T23:32:08.913Z,84.60
2023-08-12T23:34:35.882Z,84.80
2023-08-12T23:37:03.204Z,84.80
2023-08-12T23:39:31.865Z,84.90
2023-08-12T23:41:58.797Z,85.70
2023-08-12T23:44:25.684Z,86.40
2023-08-12T23:46:52.616Z,86.30
2023-08-12T23:49:19.862Z,87.40
2023-08-12T23:51:48.717Z,87.10
2023-08-12T23:54:15.613Z,87.40
2023-08-12T23:56:42.577Z,87.10
2023-08-12T23:59:09.411Z,87.60
